sensor_id;sensor_type;location;lat;lon;timestamp;P1;durP1;ratioP1;P2;durP2;ratioP2
45254;SDS011;30989;52.078;21.014;2024-03-17T00:01:35;9.02;;;2.10;;
45254;SDS011;30989;52.078;21.014;2024-03-17T00:04:01;6.93;;;2.63;;
45254;SDS011;30989;52.078;21.014;2024-03-17T00:06:26;16.83;;;2.85;;
45254;SDS011;30989;52.078;21.014;2024-03-17T00:08:51;10.70;;;1.80;;
45254;SDS011;30989;52.078;21.014;2024-03-17T00:11:17;7.82;;;2.58;;
45254;SDS011;30989;52.078;21.014;2024-03-17T00:13:42;6.32;;;1.25;;
45254;SDS011;30989;52.078;21.014;2024-03-17T00:16:08;9.20;;;2.15;;
45254;SDS011;30989;52.078;21.014;2024-03-17T00:18:34;7.85;;;1.48;;
45254;SDS011;30989;52.078;21.014;2024-03-17T00:21:00;13.40;;;2.17;;
45254;SDS011;30989;52.078;21.014;2024-03-17T00:23:27;7.90;;;1.65;;
45254;SDS011;30989;52.078;21.014;2024-03-17T00:25:54;7.00;;;1.40;;
45254;SDS011;30989;52.078;21.014;2024-03-17T00:28:20;12.57;;;2.70;;
45254;SDS011;30989;52.078;21.014;2024-03-17T00:30:46;10.75;;;1.80;;
45254;SDS011;30989;52.078;21.014;2024-03-17T00:33:11;5.00;;;1.67;;
45254;SDS011;30989;52.078;21.014;2024-03-17T00:35:36;11.20;;;2.08;;
45254;SDS011;30989;52.078;21.014;2024-03-17T00:38:02;7.63;;;1.23;;
45254;SDS011;30989;52.078;21.014;2024-03-17T00:40:35;7.40;;;1.40;;
45254;SDS011;30989;52.078;21.014;2024-03-17T00:43:00;6.25;;;2.10;;
45254;SDS011;30989;52.078;21.014;2024-03-17T00:45:26;9.00;;;1.35;;
45254;SDS011;30989;52.078;21.014;2024-03-17T00:47:51;6.50;;;1.33;;
45254;SDS011;30989;52.078;21.014;2024-03-17T00:50:16;9.90;;;2.00;;
45254;SDS011;30989;52.078;21.014;2024-03-17T00:52:42;7.25;;;1.15;;
45254;SDS011;30989;52.078;21.014;2024-03-17T00:55:07;6.88;;;1.60;;
45254;SDS011;30989;52.078;21.014;2024-03-17T00:57:35;8.38;;;1.33;;
45254;SDS011;30989;52.078;21.014;2024-03-17T01:00:00;6.47;;;1.30;;
45254;SDS011;30989;52.078;21.014;2024-03-17T01:02:26;5.93;;;2.30;;
45254;SDS011;30989;52.078;21.014;2024-03-17T01:04:51;5.88;;;1.90;;
45254;SDS011;30989;52.078;21.014;2024-03-17T01:07:17;4.28;;;1.25;;
45254;SDS011;30989;52.078;21.014;2024-03-17T01:09:42;8.75;;;1.40;;
45254;SDS011;30989;52.078;21.014;2024-03-17T01:12:07;7.80;;;1.25;;
45254;SDS011;30989;52.078;21.014;2024-03-17T01:14:33;5.97;;;2.30;;
45254;SDS011;30989;52.078;21.014;2024-03-17T01:16:59;6.28;;;1.10;;
45254;SDS011;30989;52.078;21.014;2024-03-17T01:19:25;8.80;;;1.60;;
45254;SDS011;30989;52.078;21.014;2024-03-17T01:21:51;8.18;;;1.90;;
45254;SDS011;30989;52.078;21.014;2024-03-17T01:24:17;11.25;;;1.30;;
45254;SDS011;30989;52.078;21.014;2024-03-17T01:26:43;5.55;;;1.63;;
45254;SDS011;30989;52.078;21.014;2024-03-17T01:29:09;9.32;;;2.03;;
45254;SDS011;30989;52.078;21.014;2024-03-17T01:31:34;8.93;;;2.15;;
45254;SDS011;30989;52.078;21.014;2024-03-17T01:34:00;7.20;;;1.98;;
45254;SDS011;30989;52.078;21.014;2024-03-17T01:36:26;12.20;;;1.95;;
45254;SDS011;30989;52.078;21.014;2024-03-17T01:38:51;11.07;;;1.48;;
45254;SDS011;30989;52.078;21.014;2024-03-17T01:41:17;9.00;;;1.75;;
45254;SDS011;30989;52.078;21.014;2024-03-17T01:43:42;8.02;;;1.38;;
45254;SDS011;30989;52.078;21.014;2024-03-17T01:46:10;16.13;;;2.42;;
45254;SDS011;30989;52.078;21.014;2024-03-17T01:48:38;10.45;;;2.28;;
45254;SDS011;30989;52.078;21.014;2024-03-17T01:51:04;6.10;;;2.38;;
45254;SDS011;30989;52.078;21.014;2024-03-17T01:53:30;9.10;;;1.75;;
45254;SDS011;30989;52.078;21.014;2024-03-17T01:55:56;10.35;;;1.48;;
45254;SDS011;30989;52.078;21.014;2024-03-17T01:58:26;10.32;;;2.05;;
45254;SDS011;30989;52.078;21.014;2024-03-17T02:00:54;10.60;;;1.45;;
45254;SDS011;30989;52.078;21.014;2024-03-17T02:03:21;8.80;;;2.55;;
45254;SDS011;30989;52.078;21.014;2024-03-17T02:05:46;7.78;;;1.50;;
45254;SDS011;30989;52.078;21.014;2024-03-17T02:08:12;9.65;;;1.42;;
45254;SDS011;30989;52.078;21.014;2024-03-17T02:10:38;8.20;;;1.30;;
45254;SDS011;30989;52.078;21.014;2024-03-17T02:13:04;12.00;;;2.05;;
45254;SDS011;30989;52.078;21.014;2024-03-17T02:15:31;13.40;;;1.73;;
45254;SDS011;30989;52.078;21.014;2024-03-17T02:17:59;10.27;;;2.08;;
45254;SDS011;30989;52.078;21.014;2024-03-17T02:20:25;8.10;;;1.73;;
45254;SDS011;30989;52.078;21.014;2024-03-17T02:23:10;5.63;;;1.67;;
45254;SDS011;30989;52.078;21.014;2024-03-17T02:25:36;12.80;;;1.63;;
45254;SDS011;30989;52.078;21.014;2024-03-17T02:28:02;9.90;;;2.13;;
45254;SDS011;30989;52.078;21.014;2024-03-17T02:30:27;9.23;;;2.00;;
45254;SDS011;30989;52.078;21.014;2024-03-17T02:32:53;9.20;;;1.83;;
45254;SDS011;30989;52.078;21.014;2024-03-17T02:35:20;12.13;;;1.65;;
45254;SDS011;30989;52.078;21.014;2024-03-17T02:37:47;10.25;;;1.58;;
45254;SDS011;30989;52.078;21.014;2024-03-17T02:40:13;6.90;;;1.63;;
45254;SDS011;30989;52.078;21.014;2024-03-17T02:42:39;8.77;;;1.52;;
45254;SDS011;30989;52.078;21.014;2024-03-17T02:45:07;10.13;;;1.58;;
45254;SDS011;30989;52.078;21.014;2024-03-17T02:47:33;11.70;;;1.83;;
45254;SDS011;30989;52.078;21.014;2024-03-17T02:49:59;6.20;;;1.92;;
45254;SDS011;30989;52.078;21.014;2024-03-17T02:52:25;6.22;;;1.40;;
45254;SDS011;30989;52.078;21.014;2024-03-17T02:54:51;13.40;;;3.13;;
45254;SDS011;30989;52.078;21.014;2024-03-17T02:57:18;11.52;;;1.73;;
45254;SDS011;30989;52.078;21.014;2024-03-17T02:59:43;8.77;;;1.77;;
45254;SDS011;30989;52.078;21.014;2024-03-17T03:02:10;7.85;;;2.17;;
45254;SDS011;30989;52.078;21.014;2024-03-17T03:04:36;8.88;;;2.03;;
45254;SDS011;30989;52.078;21.014;2024-03-17T03:07:01;10.55;;;1.95;;
45254;SDS011;30989;52.078;21.014;2024-03-17T03:09:27;15.75;;;1.90;;
45254;SDS011;30989;52.078;21.014;2024-03-17T03:11:57;5.55;;;1.83;;
45254;SDS011;30989;52.078;21.014;2024-03-17T03:14:24;9.93;;;1.80;;
45254;SDS011;30989;52.078;21.014;2024-03-17T03:16:50;8.75;;;2.10;;
45254;SDS011;30989;52.078;21.014;2024-03-17T03:19:16;8.45;;;1.30;;
45254;SDS011;30989;52.078;21.014;2024-03-17T03:21:41;9.65;;;2.47;;
45254;SDS011;30989;52.078;21.014;2024-03-17T03:24:07;13.65;;;3.30;;
45254;SDS011;30989;52.078;21.014;2024-03-17T03:26:32;9.50;;;1.63;;
45254;SDS011;30989;52.078;21.014;2024-03-17T03:28:58;12.30;;;3.05;;
45254;SDS011;30989;52.078;21.014;2024-03-17T03:31:24;11.35;;;2.67;;
45254;SDS011;30989;52.078;21.014;2024-03-17T03:33:49;8.30;;;1.50;;
45254;SDS011;30989;52.078;21.014;2024-03-17T03:36:15;11.02;;;1.88;;
45254;SDS011;30989;52.078;21.014;2024-03-17T03:38:41;17.33;;;2.28;;
45254;SDS011;30989;52.078;21.014;2024-03-17T03:41:12;9.13;;;1.83;;
45254;SDS011;30989;52.078;21.014;2024-03-17T03:43:39;12.32;;;2.25;;
45254;SDS011;30989;52.078;21.014;2024-03-17T03:46:05;10.82;;;2.20;;
45254;SDS011;30989;52.078;21.014;2024-03-17T03:48:31;10.80;;;2.35;;
45254;SDS011;30989;52.078;21.014;2024-03-17T03:50:57;9.85;;;2.47;;
45254;SDS011;30989;52.078;21.014;2024-03-17T03:53:24;7.85;;;2.03;;
45254;SDS011;30989;52.078;21.014;2024-03-17T03:55:49;7.90;;;1.80;;
45254;SDS011;30989;52.078;21.014;2024-03-17T03:58:14;12.27;;;2.50;;
45254;SDS011;30989;52.078;21.014;2024-03-17T04:00:40;13.65;;;2.53;;
45254;SDS011;30989;52.078;21.014;2024-03-17T04:03:06;8.50;;;2.30;;
45254;SDS011;30989;52.078;21.014;2024-03-17T04:05:31;13.02;;;2.55;;
45254;SDS011;30989;52.078;21.014;2024-03-17T04:07:57;10.27;;;2.05;;
45254;SDS011;30989;52.078;21.014;2024-03-17T04:10:23;9.82;;;2.13;;
45254;SDS011;30989;52.078;21.014;2024-03-17T04:12:50;10.65;;;2.63;;
45254;SDS011;30989;52.078;21.014;2024-03-17T04:15:16;12.88;;;2.20;;
45254;SDS011;30989;52.078;21.014;2024-03-17T04:17:41;6.40;;;2.10;;
45254;SDS011;30989;52.078;21.014;2024-03-17T04:20:07;7.50;;;1.83;;
45254;SDS011;30989;52.078;21.014;2024-03-17T04:22:34;9.05;;;2.00;;
45254;SDS011;30989;52.078;21.014;2024-03-17T04:25:00;11.40;;;2.15;;
45254;SDS011;30989;52.078;21.014;2024-03-17T04:27:26;10.35;;;2.97;;
45254;SDS011;30989;52.078;21.014;2024-03-17T04:29:52;6.63;;;2.22;;
45254;SDS011;30989;52.078;21.014;2024-03-17T04:32:18;11.88;;;2.85;;
45254;SDS011;30989;52.078;21.014;2024-03-17T04:34:44;13.63;;;2.88;;
45254;SDS011;30989;52.078;21.014;2024-03-17T04:37:13;17.52;;;3.05;;
45254;SDS011;30989;52.078;21.014;2024-03-17T04:39:39;10.32;;;2.17;;
45254;SDS011;30989;52.078;21.014;2024-03-17T04:42:08;10.82;;;2.35;;
45254;SDS011;30989;52.078;21.014;2024-03-17T04:44:34;12.20;;;2.22;;
45254;SDS011;30989;52.078;21.014;2024-03-17T04:47:00;10.13;;;2.40;;
45254;SDS011;30989;52.078;21.014;2024-03-17T04:49:25;10.30;;;2.30;;
45254;SDS011;30989;52.078;21.014;2024-03-17T04:51:51;10.60;;;2.75;;
45254;SDS011;30989;52.078;21.014;2024-03-17T04:54:16;12.45;;;2.90;;
45254;SDS011;30989;52.078;21.014;2024-03-17T04:56:42;16.08;;;2.78;;
45254;SDS011;30989;52.078;21.014;2024-03-17T04:59:07;14.25;;;2.15;;
45254;SDS011;30989;52.078;21.014;2024-03-17T05:01:32;13.77;;;2.58;;
45254;SDS011;30989;52.078;21.014;2024-03-17T05:04:02;7.93;;;1.98;;
45254;SDS011;30989;52.078;21.014;2024-03-17T05:06:28;11.25;;;3.05;;
45254;SDS011;30989;52.078;21.014;2024-03-17T05:08:54;14.02;;;2.47;;
45254;SDS011;30989;52.078;21.014;2024-03-17T05:11:19;14.60;;;2.42;;
45254;SDS011;30989;52.078;21.014;2024-03-17T05:13:45;7.65;;;2.45;;
45254;SDS011;30989;52.078;21.014;2024-03-17T05:16:10;9.63;;;2.10;;
45254;SDS011;30989;52.078;21.014;2024-03-17T05:18:36;10.15;;;3.55;;
45254;SDS011;30989;52.078;21.014;2024-03-17T05:21:05;13.13;;;2.83;;
45254;SDS011;30989;52.078;21.014;2024-03-17T05:23:32;10.98;;;3.88;;
45254;SDS011;30989;52.078;21.014;2024-03-17T05:25:59;13.90;;;3.70;;
45254;SDS011;30989;52.078;21.014;2024-03-17T05:28:25;11.75;;;2.72;;
45254;SDS011;30989;52.078;21.014;2024-03-17T05:30:53;18.38;;;2.92;;
45254;SDS011;30989;52.078;21.014;2024-03-17T05:33:19;8.43;;;1.83;;
45254;SDS011;30989;52.078;21.014;2024-03-17T05:35:59;7.38;;;2.53;;
45254;SDS011;30989;52.078;21.014;2024-03-17T05:38:27;10.75;;;3.22;;
45254;SDS011;30989;52.078;21.014;2024-03-17T05:40:57;11.90;;;3.83;;
45254;SDS011;30989;52.078;21.014;2024-03-17T05:43:27;16.55;;;2.65;;
45254;SDS011;30989;52.078;21.014;2024-03-17T05:45:55;8.73;;;2.92;;
45254;SDS011;30989;52.078;21.014;2024-03-17T05:48:22;12.90;;;3.22;;
45254;SDS011;30989;52.078;21.014;2024-03-17T05:50:49;11.00;;;3.15;;
45254;SDS011;30989;52.078;21.014;2024-03-17T05:53:18;13.88;;;3.13;;
45254;SDS011;30989;52.078;21.014;2024-03-17T05:55:45;14.20;;;2.55;;
45254;SDS011;30989;52.078;21.014;2024-03-17T05:58:11;11.48;;;3.13;;
45254;SDS011;30989;52.078;21.014;2024-03-17T06:00:37;11.38;;;2.97;;
45254;SDS011;30989;52.078;21.014;2024-03-17T06:03:04;14.45;;;3.25;;
45254;SDS011;30989;52.078;21.014;2024-03-17T06:05:33;7.47;;;3.13;;
45254;SDS011;30989;52.078;21.014;2024-03-17T06:08:03;7.13;;;2.28;;
45254;SDS011;30989;52.078;21.014;2024-03-17T06:10:30;12.68;;;3.38;;
45254;SDS011;30989;52.078;21.014;2024-03-17T06:12:57;15.63;;;2.97;;
45254;SDS011;30989;52.078;21.014;2024-03-17T06:15:23;7.13;;;2.60;;
45254;SDS011;30989;52.078;21.014;2024-03-17T06:17:50;10.57;;;2.88;;
45254;SDS011;30989;52.078;21.014;2024-03-17T06:20:19;13.88;;;2.90;;
45254;SDS011;30989;52.078;21.014;2024-03-17T06:22:46;10.65;;;2.85;;
45254;SDS011;30989;52.078;21.014;2024-03-17T06:25:12;5.47;;;2.20;;
45254;SDS011;30989;52.078;21.014;2024-03-17T06:27:38;6.78;;;2.10;;
45254;SDS011;30989;52.078;21.014;2024-03-17T06:30:04;14.18;;;3.25;;
45254;SDS011;30989;52.078;21.014;2024-03-17T06:32:30;15.82;;;4.07;;
45254;SDS011;30989;52.078;21.014;2024-03-17T06:34:56;7.22;;;1.95;;
45254;SDS011;30989;52.078;21.014;2024-03-17T06:37:23;9.40;;;2.20;;
45254;SDS011;30989;52.078;21.014;2024-03-17T06:39:49;11.05;;;2.63;;
45254;SDS011;30989;52.078;21.014;2024-03-17T06:42:14;12.35;;;2.20;;
45254;SDS011;30989;52.078;21.014;2024-03-17T06:44:40;4.43;;;1.58;;
45254;SDS011;30989;52.078;21.014;2024-03-17T06:47:06;7.03;;;1.50;;
45254;SDS011;30989;52.078;21.014;2024-03-17T06:49:31;9.07;;;1.70;;
45254;SDS011;30989;52.078;21.014;2024-03-17T06:51:57;5.30;;;2.03;;
45254;SDS011;30989;52.078;21.014;2024-03-17T06:54:23;11.07;;;1.55;;
45254;SDS011;30989;52.078;21.014;2024-03-17T06:56:49;6.80;;;1.70;;
45254;SDS011;30989;52.078;21.014;2024-03-17T06:59:15;10.70;;;2.70;;
45254;SDS011;30989;52.078;21.014;2024-03-17T07:01:41;6.10;;;1.88;;
45254;SDS011;30989;52.078;21.014;2024-03-17T07:04:06;7.60;;;2.20;;
45254;SDS011;30989;52.078;21.014;2024-03-17T07:06:32;12.25;;;2.22;;
45254;SDS011;30989;52.078;21.014;2024-03-17T07:08:57;5.38;;;1.30;;
45254;SDS011;30989;52.078;21.014;2024-03-17T07:11:22;8.88;;;2.05;;
45254;SDS011;30989;52.078;21.014;2024-03-17T07:13:49;8.65;;;2.47;;
45254;SDS011;30989;52.078;21.014;2024-03-17T07:16:16;11.77;;;2.00;;
45254;SDS011;30989;52.078;21.014;2024-03-17T07:18:43;6.03;;;2.10;;
45254;SDS011;30989;52.078;21.014;2024-03-17T07:21:09;4.50;;;1.30;;
45254;SDS011;30989;52.078;21.014;2024-03-17T07:23:35;12.38;;;2.15;;
45254;SDS011;30989;52.078;21.014;2024-03-17T07:26:02;5.78;;;1.30;;
45254;SDS011;30989;52.078;21.014;2024-03-17T07:28:29;8.95;;;1.77;;
45254;SDS011;30989;52.078;21.014;2024-03-17T07:30:56;7.50;;;1.60;;
45254;SDS011;30989;52.078;21.014;2024-03-17T07:33:23;8.02;;;2.90;;
45254;SDS011;30989;52.078;21.014;2024-03-17T07:35:49;5.63;;;1.20;;
45254;SDS011;30989;52.078;21.014;2024-03-17T07:38:20;5.20;;;1.42;;
45254;SDS011;30989;52.078;21.014;2024-03-17T07:40:54;6.60;;;1.70;;
45254;SDS011;30989;52.078;21.014;2024-03-17T07:43:34;5.68;;;1.50;;
45254;SDS011;30989;52.078;21.014;2024-03-17T07:46:01;7.60;;;2.15;;
45254;SDS011;30989;52.078;21.014;2024-03-17T07:48:27;5.22;;;1.80;;
45254;SDS011;30989;52.078;21.014;2024-03-17T07:51:01;14.38;;;1.98;;
45254;SDS011;30989;52.078;21.014;2024-03-17T07:53:31;10.90;;;2.30;;
45254;SDS011;30989;52.078;21.014;2024-03-17T07:56:01;7.13;;;2.10;;
45254;SDS011;30989;52.078;21.014;2024-03-17T07:58:29;5.82;;;1.52;;
45254;SDS011;30989;52.078;21.014;2024-03-17T08:01:02;6.05;;;1.40;;
45254;SDS011;30989;52.078;21.014;2024-03-17T08:03:32;11.43;;;1.60;;
45254;SDS011;30989;52.078;21.014;2024-03-17T08:05:59;7.22;;;1.95;;
45254;SDS011;30989;52.078;21.014;2024-03-17T08:08:26;10.68;;;1.88;;
45254;SDS011;30989;52.078;21.014;2024-03-17T08:10:51;9.27;;;2.25;;
45254;SDS011;30989;52.078;21.014;2024-03-17T08:13:17;8.02;;;1.98;;
45254;SDS011;30989;52.078;21.014;2024-03-17T08:15:43;10.07;;;2.45;;
45254;SDS011;30989;52.078;21.014;2024-03-17T08:18:13;7.40;;;2.55;;
45254;SDS011;30989;52.078;21.014;2024-03-17T08:20:38;10.45;;;2.13;;
45254;SDS011;30989;52.078;21.014;2024-03-17T08:23:04;6.22;;;1.63;;
45254;SDS011;30989;52.078;21.014;2024-03-17T08:25:31;3.75;;;1.33;;
45254;SDS011;30989;52.078;21.014;2024-03-17T08:27:56;13.23;;;2.20;;
45254;SDS011;30989;52.078;21.014;2024-03-17T08:30:22;9.48;;;2.35;;
45254;SDS011;30989;52.078;21.014;2024-03-17T08:32:47;8.05;;;2.20;;
45254;SDS011;30989;52.078;21.014;2024-03-17T08:35:13;6.80;;;1.42;;
45254;SDS011;30989;52.078;21.014;2024-03-17T08:37:38;8.43;;;1.80;;
45254;SDS011;30989;52.078;21.014;2024-03-17T08:40:04;4.18;;;1.75;;
45254;SDS011;30989;52.078;21.014;2024-03-17T08:42:31;10.75;;;1.75;;
45254;SDS011;30989;52.078;21.014;2024-03-17T08:44:57;7.65;;;1.83;;
45254;SDS011;30989;52.078;21.014;2024-03-17T08:47:23;11.73;;;2.22;;
45254;SDS011;30989;52.078;21.014;2024-03-17T08:49:51;4.97;;;1.80;;
45254;SDS011;30989;52.078;21.014;2024-03-17T08:52:17;8.18;;;2.90;;
45254;SDS011;30989;52.078;21.014;2024-03-17T08:54:45;10.82;;;3.15;;
45254;SDS011;30989;52.078;21.014;2024-03-17T08:57:12;10.98;;;1.92;;
45254;SDS011;30989;52.078;21.014;2024-03-17T08:59:37;10.45;;;2.58;;
45254;SDS011;30989;52.078;21.014;2024-03-17T09:02:03;8.90;;;2.50;;
45254;SDS011;30989;52.078;21.014;2024-03-17T09:04:28;15.70;;;2.70;;
45254;SDS011;30989;52.078;21.014;2024-03-17T09:06:54;11.77;;;2.45;;
45254;SDS011;30989;52.078;21.014;2024-03-17T09:09:21;14.63;;;2.88;;
45254;SDS011;30989;52.078;21.014;2024-03-17T09:11:47;11.38;;;2.83;;
45254;SDS011;30989;52.078;21.014;2024-03-17T09:14:12;6.43;;;1.75;;
45254;SDS011;30989;52.078;21.014;2024-03-17T09:16:38;6.18;;;2.03;;
45254;SDS011;30989;52.078;21.014;2024-03-17T09:19:03;7.88;;;2.17;;
45254;SDS011;30989;52.078;21.014;2024-03-17T09:21:29;10.57;;;2.33;;
45254;SDS011;30989;52.078;21.014;2024-03-17T09:23:54;7.97;;;1.70;;
45254;SDS011;30989;52.078;21.014;2024-03-17T09:26:20;10.50;;;2.10;;
45254;SDS011;30989;52.078;21.014;2024-03-17T09:28:45;8.38;;;1.88;;
45254;SDS011;30989;52.078;21.014;2024-03-17T09:31:11;9.70;;;2.92;;
45254;SDS011;30989;52.078;21.014;2024-03-17T09:33:37;5.72;;;2.03;;
45254;SDS011;30989;52.078;21.014;2024-03-17T09:36:06;9.18;;;1.88;;
45254;SDS011;30989;52.078;21.014;2024-03-17T09:38:36;6.63;;;2.30;;
45254;SDS011;30989;52.078;21.014;2024-03-17T09:41:02;7.03;;;2.33;;
45254;SDS011;30989;52.078;21.014;2024-03-17T09:43:28;10.10;;;2.60;;
45254;SDS011;30989;52.078;21.014;2024-03-17T09:45:57;9.05;;;2.25;;
45254;SDS011;30989;52.078;21.014;2024-03-17T09:48:23;8.15;;;2.42;;
45254;SDS011;30989;52.078;21.014;2024-03-17T09:50:50;10.70;;;2.38;;
45254;SDS011;30989;52.078;21.014;2024-03-17T09:53:22;8.25;;;1.88;;
45254;SDS011;30989;52.078;21.014;2024-03-17T09:56:11;5.70;;;1.85;;
45254;SDS011;30989;52.078;21.014;2024-03-17T09:58:41;6.90;;;1.83;;
45254;SDS011;30989;52.078;21.014;2024-03-17T10:01:11;8.98;;;2.22;;
45254;SDS011;30989;52.078;21.014;2024-03-17T10:06:12;6.75;;;2.28;;
45254;SDS011;30989;52.078;21.014;2024-03-17T10:08:45;8.13;;;2.17;;
45254;SDS011;30989;52.078;21.014;2024-03-17T10:11:18;7.25;;;2.40;;
45254;SDS011;30989;52.078;21.014;2024-03-17T10:13:46;3.85;;;1.55;;
45254;SDS011;30989;52.078;21.014;2024-03-17T10:16:27;5.15;;;1.55;;
45254;SDS011;30989;52.078;21.014;2024-03-17T10:21:46;6.50;;;1.63;;
45254;SDS011;30989;52.078;21.014;2024-03-17T10:24:14;4.93;;;1.60;;
45254;SDS011;30989;52.078;21.014;2024-03-17T10:26:50;6.28;;;2.15;;
45254;SDS011;30989;52.078;21.014;2024-03-17T10:31:59;7.68;;;1.92;;
45254;SDS011;30989;52.078;21.014;2024-03-17T10:34:27;7.35;;;1.92;;
45254;SDS011;30989;52.078;21.014;2024-03-17T10:39:32;6.20;;;1.85;;
45254;SDS011;30989;52.078;21.014;2024-03-17T10:42:00;7.07;;;1.92;;
45254;SDS011;30989;52.078;21.014;2024-03-17T10:44:27;6.85;;;1.83;;
45254;SDS011;30989;52.078;21.014;2024-03-17T10:46:54;5.18;;;1.50;;
45254;SDS011;30989;52.078;21.014;2024-03-17T10:49:23;4.50;;;1.50;;
45254;SDS011;30989;52.078;21.014;2024-03-17T10:52:00;7.10;;;1.88;;
45254;SDS011;30989;52.078;21.014;2024-03-17T10:54:28;6.95;;;1.48;;
45254;SDS011;30989;52.078;21.014;2024-03-17T10:56:57;5.35;;;2.35;;
45254;SDS011;30989;52.078;21.014;2024-03-17T10:59:40;7.07;;;1.90;;
45254;SDS011;30989;52.078;21.014;2024-03-17T11:02:28;5.20;;;1.42;;
45254;SDS011;30989;52.078;21.014;2024-03-17T11:04:58;3.55;;;1.50;;
45254;SDS011;30989;52.078;21.014;2024-03-17T11:07:25;5.30;;;1.38;;
45254;SDS011;30989;52.078;21.014;2024-03-17T11:09:52;6.15;;;2.28;;
45254;SDS011;30989;52.078;21.014;2024-03-17T11:17:53;4.07;;;1.20;;
45254;SDS011;30989;52.078;21.014;2024-03-17T11:20:38;5.00;;;1.48;;
45254;SDS011;30989;52.078;21.014;2024-03-17T11:23:05;5.60;;;2.00;;
45254;SDS011;30989;52.078;21.014;2024-03-17T11:27:59;5.68;;;1.58;;
45254;SDS011;30989;52.078;21.014;2024-03-17T11:41:35;3.22;;;1.45;;
45254;SDS011;30989;52.078;21.014;2024-03-17T11:47:02;7.40;;;1.83;;
45254;SDS011;30989;52.078;21.014;2024-03-17T11:49:41;2.72;;;1.02;;
45254;SDS011;30989;52.078;21.014;2024-03-17T11:52:09;3.33;;;1.38;;
45254;SDS011;30989;52.078;21.014;2024-03-17T11:54:42;2.33;;;1.13;;
45254;SDS011;30989;52.078;21.014;2024-03-17T11:57:09;2.70;;;1.48;;
45254;SDS011;30989;52.078;21.014;2024-03-17T11:59:36;4.47;;;1.52;;
45254;SDS011;30989;52.078;21.014;2024-03-17T12:02:07;3.95;;;1.52;;
45254;SDS011;30989;52.078;21.014;2024-03-17T12:04:38;4.90;;;1.52;;
45254;SDS011;30989;52.078;21.014;2024-03-17T12:07:07;3.17;;;1.20;;
45254;SDS011;30989;52.078;21.014;2024-03-17T12:09:38;3.13;;;1.30;;
45254;SDS011;30989;52.078;21.014;2024-03-17T12:12:06;2.90;;;1.17;;
45254;SDS011;30989;52.078;21.014;2024-03-17T12:14:38;3.53;;;1.08;;
45254;SDS011;30989;52.078;21.014;2024-03-17T12:17:08;1.90;;;0.90;;
45254;SDS011;30989;52.078;21.014;2024-03-17T12:19:34;2.63;;;1.45;;
45254;SDS011;30989;52.078;21.014;2024-03-17T12:22:02;3.63;;;1.55;;
45254;SDS011;30989;52.078;21.014;2024-03-17T12:24:34;3.80;;;1.40;;
45254;SDS011;30989;52.078;21.014;2024-03-17T12:27:03;2.67;;;1.00;;
45254;SDS011;30989;52.078;21.014;2024-03-17T12:29:36;3.22;;;1.20;;
45254;SDS011;30989;52.078;21.014;2024-03-17T12:32:26;2.90;;;1.00;;
45254;SDS011;30989;52.078;21.014;2024-03-17T12:34:59;2.15;;;0.93;;
45254;SDS011;30989;52.078;21.014;2024-03-17T12:37:29;4.13;;;1.30;;
45254;SDS011;30989;52.078;21.014;2024-03-17T12:39:59;1.85;;;0.90;;
45254;SDS011;30989;52.078;21.014;2024-03-17T12:42:25;2.33;;;1.20;;
45254;SDS011;30989;52.078;21.014;2024-03-17T12:44:58;4.10;;;1.23;;
45254;SDS011;30989;52.078;21.014;2024-03-17T12:47:25;3.25;;;1.63;;
45254;SDS011;30989;52.078;21.014;2024-03-17T12:50:10;3.83;;;0.93;;
45254;SDS011;30989;52.078;21.014;2024-03-17T12:52:39;4.45;;;1.42;;
45254;SDS011;30989;52.078;21.014;2024-03-17T12:55:11;2.92;;;1.42;;
45254;SDS011;30989;52.078;21.014;2024-03-17T13:00:47;3.20;;;1.45;;
45254;SDS011;30989;52.078;21.014;2024-03-17T13:03:30;5.40;;;1.20;;
45254;SDS011;30989;52.078;21.014;2024-03-17T13:06:08;3.83;;;1.58;;
45254;SDS011;30989;52.078;21.014;2024-03-17T13:08:51;5.28;;;1.48;;
45254;SDS011;30989;52.078;21.014;2024-03-17T13:11:23;4.78;;;1.45;;
45254;SDS011;30989;52.078;21.014;2024-03-17T13:13:58;3.35;;;1.42;;
45254;SDS011;30989;52.078;21.014;2024-03-17T13:16:32;2.60;;;0.95;;
45254;SDS011;30989;52.078;21.014;2024-03-17T13:19:00;3.10;;;1.30;;
45254;SDS011;30989;52.078;21.014;2024-03-17T13:21:38;3.78;;;1.52;;
45254;SDS011;30989;52.078;21.014;2024-03-17T13:24:07;4.07;;;1.40;;
45254;SDS011;30989;52.078;21.014;2024-03-17T13:26:42;2.30;;;0.90;;
45254;SDS011;30989;52.078;21.014;2024-03-17T13:29:20;2.25;;;1.23;;
45254;SDS011;30989;52.078;21.014;2024-03-17T13:31:55;4.55;;;0.90;;
45254;SDS011;30989;52.078;21.014;2024-03-17T13:34:21;3.55;;;1.05;;
45254;SDS011;30989;52.078;21.014;2024-03-17T13:36:46;2.08;;;1.08;;
45254;SDS011;30989;52.078;21.014;2024-03-17T13:39:11;2.80;;;1.15;;
45254;SDS011;30989;52.078;21.014;2024-03-17T13:41:37;2.38;;;1.10;;
45254;SDS011;30989;52.078;21.014;2024-03-17T13:44:03;3.83;;;1.10;;
45254;SDS011;30989;52.078;21.014;2024-03-17T13:46:28;3.45;;;1.60;;
45254;SDS011;30989;52.078;21.014;2024-03-17T13:48:54;4.60;;;1.63;;
45254;SDS011;30989;52.078;21.014;2024-03-17T13:51:31;4.53;;;1.48;;
45254;SDS011;30989;52.078;21.014;2024-03-17T13:54:00;3.25;;;1.33;;
45254;SDS011;30989;52.078;21.014;2024-03-17T13:56:28;4.72;;;2.15;;
45254;SDS011;30989;52.078;21.014;2024-03-17T13:58:54;4.53;;;1.20;;
45254;SDS011;30989;52.078;21.014;2024-03-17T14:01:19;3.05;;;1.40;;
45254;SDS011;30989;52.078;21.014;2024-03-17T14:03:45;12.38;;;1.42;;
45254;SDS011;30989;52.078;21.014;2024-03-17T14:06:11;2.47;;;1.30;;
45254;SDS011;30989;52.078;21.014;2024-03-17T14:08:36;4.50;;;2.00;;
45254;SDS011;30989;52.078;21.014;2024-03-17T14:11:02;5.90;;;2.25;;
45254;SDS011;30989;52.078;21.014;2024-03-17T14:13:29;4.90;;;1.38;;
45254;SDS011;30989;52.078;21.014;2024-03-17T14:15:55;3.00;;;1.30;;
45254;SDS011;30989;52.078;21.014;2024-03-17T14:18:21;3.30;;;1.40;;
45254;SDS011;30989;52.078;21.014;2024-03-17T14:20:49;2.88;;;1.50;;
45254;SDS011;30989;52.078;21.014;2024-03-17T14:23:18;3.58;;;1.42;;
45254;SDS011;30989;52.078;21.014;2024-03-17T14:25:43;5.00;;;1.80;;
45254;SDS011;30989;52.078;21.014;2024-03-17T14:28:08;3.55;;;1.30;;
45254;SDS011;30989;52.078;21.014;2024-03-17T14:30:34;3.85;;;1.38;;
45254;SDS011;30989;52.078;21.014;2024-03-17T14:33:00;10.20;;;2.10;;
45254;SDS011;30989;52.078;21.014;2024-03-17T14:35:25;4.88;;;1.63;;
45254;SDS011;30989;52.078;21.014;2024-03-17T14:37:55;3.88;;;1.95;;
45254;SDS011;30989;52.078;21.014;2024-03-17T14:40:20;4.57;;;1.90;;
45254;SDS011;30989;52.078;21.014;2024-03-17T14:42:48;4.15;;;1.60;;
45254;SDS011;30989;52.078;21.014;2024-03-17T14:45:17;3.97;;;1.27;;
45254;SDS011;30989;52.078;21.014;2024-03-17T14:47:43;3.53;;;1.40;;
45254;SDS011;30989;52.078;21.014;2024-03-17T14:50:09;3.88;;;1.23;;
45254;SDS011;30989;52.078;21.014;2024-03-17T14:52:39;2.70;;;1.23;;
45254;SDS011;30989;52.078;21.014;2024-03-17T14:55:22;2.72;;;1.10;;
45254;SDS011;30989;52.078;21.014;2024-03-17T14:57:47;2.40;;;1.20;;
45254;SDS011;30989;52.078;21.014;2024-03-17T15:00:13;2.13;;;0.82;;
45254;SDS011;30989;52.078;21.014;2024-03-17T15:02:44;3.08;;;1.42;;
45254;SDS011;30989;52.078;21.014;2024-03-17T15:05:13;2.97;;;1.15;;
45254;SDS011;30989;52.078;21.014;2024-03-17T15:08:09;2.50;;;0.93;;
45254;SDS011;30989;52.078;21.014;2024-03-17T15:10:35;4.28;;;1.35;;